Time;durP1;ratioP1;P1;durP2;ratioP2;P2;SDS_P1;SDS_P2;PMS_P1;PMS_P2;Temp;Humidity;BMP_temperature;BMP_pressure;BME280_temperature;BME280_humidity;BME280_pressure;Samples;Min_cycle;Max_cycle;Signal;HPM_P1;HPM_P2
2023/12/09 00:00:21;;;;;;;16.02;5.25;;;7.50;99.90;;;7.54;85.76;100120.97;5029136;28;20038;-83
2023/12/09 00:02:48;;;;;;;17.40;5.47;;;7.60;99.90;;;7.53;86.30;100127.28;5021796;28;20467;-83
2023/12/09 00:05:16;;;;;;;14.05;5.35;;;7.50;99.90;;;7.57;86.22;100128.53;5017752;28;20420;-83
2023/12/09 00:07:45;;;;;;;24.45;5.65;;;7.60;99.90;;;7.59;86.30;100129.13;5036708;28;20048;-83
2023/12/09 00:10:13;;;;;;;15.43;5.50;;;7.60;99.90;;;7.60;86.46;100130.75;5038325;28;20459;-83
2023/12/09 00:12:40;;;;;;;15.55;5.68;;;7.60;99.90;;;7.61;86.71;100140.38;5037321;28;20077;-83
2023/12/09 00:15:09;;;;;;;21.33;6.63;;;7.60;99.90;;;7.60;86.85;100144.03;5041689;28;20065;-88
2023/12/09 00:17:37;;;;;;;16.23;6.10;;;7.60;99.90;;;7.59;87.07;100142.41;5004933;28;20045;-83
2023/12/09 00:20:06;;;;;;;15.80;6.15;;;7.60;99.90;;;7.51;88.22;100134.63;5023012;28;20390;-83
2023/12/09 00:22:33;;;;;;;14.27;5.72;;;7.60;99.90;;;7.53;88.40;100135.25;5020885;28;20148;-83
2023/12/09 00:25:03;;;;;;;14.63;5.85;;;7.60;99.90;;;7.53;88.51;100132.59;5020675;28;20042;-83
2023/12/09 00:27:31;;;;;;;15.27;5.47;;;7.60;99.90;;;7.54;88.64;100134.22;5040429;28;20045;-83
2023/12/09 00:29:58;;;;;;;18.85;6.53;;;7.60;99.90;;;7.54;88.60;100130.75;5040383;28;20064;-83
2023/12/09 00:32:26;;;;;;;16.85;6.38;;;7.60;99.90;;;7.53;88.69;100131.78;5040475;28;20037;-83
2023/12/09 00:34:53;;;;;;;17.48;5.90;;;7.60;99.90;;;7.57;88.71;100130.38;5041603;28;20057;-83
2023/12/09 00:37:21;;;;;;;19.20;6.30;;;7.60;99.90;;;7.50;88.96;100122.38;5023362;28;20052;-83
2023/12/09 00:39:48;;;;;;;15.38;5.60;;;7.60;99.90;;;7.52;89.14;100130.97;5040247;28;20041;-83
2023/12/09 00:42:17;;;;;;;17.83;6.35;;;7.50;99.90;;;7.53;89.24;100127.28;5037800;28;20068;-83
2023/12/09 00:44:44;;;;;;;17.00;5.68;;;7.50;99.90;;;7.52;89.13;100122.19;5041573;28;20060;-83
2023/12/09 00:47:12;;;;;;;21.50;6.45;;;7.50;99.90;;;7.53;88.95;100118.50;5040349;28;20128;-83
2023/12/09 00:49:39;;;;;;;16.27;6.35;;;7.50;99.90;;;7.54;88.76;100122.81;5040865;28;20127;-83
2023/12/09 00:52:06;;;;;;;22.02;5.35;;;7.50;99.90;;;7.53;88.62;100126.47;5013153;28;20133;-83
2023/12/09 00:54:35;;;;;;;19.15;6.10;;;7.50;99.90;;;7.54;88.55;100122.81;5020403;28;20081;-83
2023/12/09 00:57:04;;;;;;;20.77;5.97;;;7.50;99.90;;;7.55;88.54;100130.56;5037389;28;20050;-83
2023/12/09 00:59:33;;;;;;;17.70;6.18;;;7.50;99.90;;;7.52;88.62;100124.84;4987600;28;20505;-83
2023/12/09 01:02:01;;;;;;;20.92;5.70;;;7.50;99.90;;;7.54;88.77;100128.09;5012869;28;20045;-83
2023/12/09 01:04:28;;;;;;;18.55;6.22;;;7.50;99.90;;;7.49;88.97;100126.06;5039497;28;20107;-83
2023/12/09 01:06:55;;;;;;;20.20;5.70;;;7.50;99.90;;;7.47;88.82;100134.22;5041266;28;20041;-83
2023/12/09 01:09:23;;;;;;;23.88;6.22;;;7.70;99.90;;;7.44;88.75;100145.22;5041250;28;20080;-83
2023/12/09 01:11:50;;;;;;;19.45;6.00;;;7.40;99.90;;;7.43;89.00;100134.81;5033461;28;20535;-83
2023/12/09 01:14:18;;;;;;;18.50;5.68;;;7.40;99.90;;;7.44;89.00;100131.94;5020130;28;20046;-83
2023/12/09 01:16:48;;;;;;;12.90;5.53;;;7.40;99.90;;;7.45;88.67;100135.41;5021436;28;20125;-83
2023/12/09 01:19:16;;;;;;;10.15;4.78;;;7.50;99.90;;;7.46;88.29;100126.44;5020527;28;20082;-83
2023/12/09 01:21:43;;;;;;;19.35;5.50;;;7.40;99.90;;;7.46;88.07;100135.22;5021142;28;20057;-83
2023/12/09 01:24:10;;;;;;;19.77;6.18;;;7.40;99.90;;;7.41;87.78;100123.56;5038443;28;20045;-83
2023/12/09 01:26:38;;;;;;;17.50;5.68;;;7.40;99.90;;;7.36;87.70;100132.13;5022350;28;20068;-83
2023/12/09 01:29:06;;;;;;;20.70;5.22;;;7.40;99.90;;;7.39;87.81;100137.03;5005482;28;20053;-83
2023/12/09 01:31:34;;;;;;;14.30;5.55;;;7.40;99.90;;;7.40;87.83;100135.19;5005050;28;20453;-83
2023/12/09 01:34:03;;;;;;;20.10;5.18;;;7.40;99.90;;;7.32;87.74;100138.84;5038487;28;20053;-82
2023/12/09 01:36:30;;;;;;;21.85;6.45;;;7.40;99.90;;;7.33;88.29;100131.72;5021382;28;20052;-83
2023/12/09 01:38:58;;;;;;;15.77;4.93;;;7.40;99.90;;;7.38;88.57;100134.59;5039160;28;20128;-83
2023/12/09 01:41:25;;;;;;;16.65;4.85;;;7.40;99.90;;;7.42;88.39;100134.00;5021835;28;20046;-83
2023/12/09 01:43:52;;;;;;;17.65;5.65;;;7.40;99.90;;;7.43;88.21;100132.97;5038523;28;20057;-83
2023/12/09 01:46:22;;;;;;;17.80;5.18;;;7.40;99.90;;;7.43;88.33;100132.16;5038739;28;20488;-83
2023/12/09 01:48:50;;;;;;;18.92;5.07;;;7.40;99.90;;;7.45;88.27;100120.31;5038103;28;20064;-83
2023/12/09 01:51:20;;;;;;;22.50;5.75;;;7.40;99.90;;;7.42;88.18;100126.03;5020798;28;20049;-83
2023/12/09 01:53:49;;;;;;;20.92;5.28;;;7.40;99.90;;;7.45;88.08;100127.47;5021285;28;20551;-83
2023/12/09 01:56:21;;;;;;;19.52;5.65;;;7.40;99.90;;;7.44;88.05;100131.94;5004898;28;20111;-83
2023/12/09 01:58:50;;;;;;;19.23;4.65;;;7.50;99.90;;;7.47;88.09;100128.09;4990987;28;20095;-83
2023/12/09 02:01:18;;;;;;;20.05;5.75;;;7.50;99.90;;;7.46;88.20;100121.94;5036956;28;20038;-83
2023/12/09 02:03:45;;;;;;;14.77;5.00;;;7.50;99.90;;;7.44;88.03;100125.84;5019876;28;20046;-83
2023/12/09 02:06:13;;;;;;;23.80;5.22;;;7.50;99.90;;;7.45;88.17;100122.16;5036106;28;20136;-83
2023/12/09 02:08:42;;;;;;;12.23;4.72;;;7.40;99.90;;;7.48;87.85;100121.78;5002720;28;20053;-83
2023/12/09 02:11:24;;;;;;;21.30;4.43;;;7.50;99.90;;;7.46;87.50;100127.25;4986251;28;20070;-84
2023/12/09 02:14:04;;;;;;;22.80;4.40;;;7.50;99.90;;;7.46;87.70;100126.44;5039590;28;20045;-84
2023/12/09 02:16:41;;;;;;;21.73;4.88;;;7.50;99.90;;;7.46;87.63;100118.47;4987362;28;20050;-83
2023/12/09 02:19:14;;;;;;;18.58;4.85;;;7.50;99.90;;;7.52;87.73;100114.22;5020391;28;20509;-83
2023/12/09 02:22:03;;;;;;;19.77;5.20;;;7.50;99.90;;;7.53;87.66;100110.56;5018679;28;20049;-83
2023/12/09 02:24:32;;;;;;;19.20;4.82;;;7.50;99.90;;;7.55;87.29;100114.63;5019030;28;20038;-83
2023/12/09 02:27:08;;;;;;;16.52;5.07;;;7.50;99.90;;;7.55;87.21;100104.00;5002608;28;20038;-83
2023/12/09 02:29:50;;;;;;;15.23;4.80;;;7.50;99.90;;;7.52;86.94;100098.31;5032736;28;20420;-83
2023/12/09 02:32:22;;;;;;;23.58;5.38;;;7.50;99.90;;;7.51;86.85;100088.69;5054714;28;20085;-83
2023/12/09 02:34:50;;;;;;;15.25;5.13;;;7.50;99.90;;;7.47;86.46;100102.38;5038757;28;20481;-83
2023/12/09 02:37:19;;;;;;;15.05;5.25;;;7.50;99.90;;;7.48;86.59;100087.28;5040181;28;20089;-83
2023/12/09 02:39:49;;;;;;;14.10;4.43;;;7.50;99.90;;;7.44;86.10;100086.84;5039055;28;20042;-83
2023/12/09 02:42:19;;;;;;;18.00;5.70;;;7.50;99.90;;;7.42;86.58;100080.94;5011656;28;20046;-83
2023/12/09 02:44:47;;;;;;;16.55;4.60;;;7.40;99.90;;;7.41;86.25;100070.50;5017872;28;20049;-83
2023/12/09 02:47:15;;;;;;;16.02;4.80;;;7.40;99.90;;;7.44;86.02;100078.06;5034542;28;20062;-83
2023/12/09 02:49:42;;;;;;;20.05;5.25;;;7.40;99.90;;;7.46;85.96;100074.19;5020820;28;20042;-83
2023/12/09 02:52:11;;;;;;;13.85;4.35;;;7.40;99.90;;;7.42;85.61;100072.97;5030673;28;20042;-83
2023/12/09 02:54:38;;;;;;;18.55;5.00;;;7.40;99.90;;;7.44;85.61;100064.81;5019118;28;20050;-83
2023/12/09 02:57:07;;;;;;;14.02;5.10;;;7.40;99.90;;;7.48;85.63;100068.69;5019648;28;20046;-83
2023/12/09 02:59:35;;;;;;;17.90;4.13;;;7.40;99.90;;;7.48;85.31;100068.69;5017650;28;20046;-83
2023/12/09 03:02:02;;;;;;;18.48;4.30;;;7.40;99.90;;;7.49;85.13;100062.38;5040365;28;20137;-83
2023/12/09 03:04:31;;;;;;;18.05;4.75;;;7.40;99.90;;;7.49;84.72;100062.38;5038389;28;20412;-83
2023/12/09 03:06:58;;;;;;;13.23;4.53;;;7.30;99.90;;;7.50;84.68;100053.38;5036730;28;20050;-83
2023/12/09 03:09:25;;;;;;;19.00;5.15;;;7.30;99.90;;;7.49;84.60;100059.72;5038306;28;20572;-83
2023/12/09 03:11:53;;;;;;;16.88;4.25;;;7.30;99.90;;;7.48;84.33;100058.09;5037222;28;20049;-83
2023/12/09 03:14:23;;;;;;;16.23;4.35;;;7.30;99.90;;;7.47;84.20;100059.13;5037227;28;20048;-83
2023/12/09 03:16:51;;;;;;;15.00;4.13;;;7.30;99.90;;;7.44;84.00;100049.69;5020306;28;20068;-83
2023/12/09 03:19:19;;;;;;;15.68;4.20;;;7.30;99.90;;;7.43;83.82;100052.56;5037516;28;20060;-84
2023/12/09 03:21:46;;;;;;;11.48;4.78;;;7.30;99.90;;;7.42;83.71;100057.06;5020962;28;20041;-83
2023/12/09 03:24:14;;;;;;;18.90;4.50;;;7.20;99.90;;;7.35;83.68;100048.25;5037049;28;20045;-83
2023/12/09 03:26:41;;;;;;;14.10;4.70;;;7.20;99.90;;;7.33;83.71;100049.50;5037074;28;20050;-83
2023/12/09 03:29:08;;;;;;;19.13;4.88;;;7.20;99.90;;;7.35;83.69;100036.81;5036577;28;20045;-83
2023/12/09 03:31:42;;;;;;;19.70;4.75;;;7.20;99.90;;;7.24;83.93;100024.97;5036158;28;20053;-83
2023/12/09 03:34:09;;;;;;;16.77;4.88;;;7.20;99.90;;;7.18;84.22;100023.94;5019084;28;20076;-83
2023/12/09 03:36:37;;;;;;;11.23;4.32;;;7.20;99.90;;;7.23;84.45;100029.47;5000377;28;20115;-83
2023/12/09 03:39:06;;;;;;;17.30;5.47;;;7.20;99.90;;;7.24;84.19;100017.00;5018643;28;20505;-83
2023/12/09 03:41:33;;;;;;;27.02;4.90;;;7.10;99.90;;;7.29;84.38;100024.38;5019463;28;20051;-83
2023/12/09 03:44:01;;;;;;;18.83;4.95;;;7.20;99.90;;;7.29;84.05;100019.06;5038346;28;20050;-83
2023/12/09 03:46:28;;;;;;;19.85;5.35;;;7.20;99.90;;;7.31;83.95;100020.50;5003396;28;20554;-83
2023/12/09 03:48:57;;;;;;;16.85;4.60;;;7.20;99.90;;;7.29;83.44;100009.28;5036780;28;20042;-83
2023/12/09 03:51:25;;;;;;;19.67;5.15;;;7.20;99.90;;;7.26;83.59;100004.38;5002848;28;20054;-83
2023/12/09 03:53:53;;;;;;;19.65;4.78;;;7.10;99.90;;;7.21;83.63;100014.75;5038242;28;20050;-83
2023/12/09 03:56:22;;;;;;;16.55;4.70;;;7.10;99.90;;;7.16;83.64;100015.34;5036077;28;20455;-83
2023/12/09 03:58:50;;;;;;;13.55;4.25;;;7.10;99.90;;;7.15;83.84;100013.72;5037977;28;20075;-83
2023/12/09 04:01:17;;;;;;;18.67;5.28;;;7.20;99.90;;;7.16;84.05;100025.97;5035871;28;20069;-83
2023/12/09 04:03:45;;;;;;;17.48;4.32;;;7.10;99.90;;;7.17;84.04;100022.31;4993734;28;20049;-83
2023/12/09 04:06:14;;;;;;;13.65;5.05;;;7.20;99.90;;;7.19;84.37;100030.06;5019919;28;20508;-83
2023/12/09 04:08:42;;;;;;;20.33;4.47;;;7.20;99.90;;;7.16;84.08;100036.56;5037190;28;20046;-83
2023/12/09 04:11:09;;;;;;;16.48;4.80;;;7.10;99.90;;;7.16;83.95;100039.22;5037762;28;20046;-82
2023/12/09 04:13:36;;;;;;;15.70;4.80;;;7.10;99.90;;;7.13;84.00;100036.97;5002498;28;20132;-83
2023/12/09 04:16:07;;;;;;;23.08;5.70;;;7.10;99.90;;;7.13;84.21;100030.88;5017314;28;20053;-83
2023/12/09 04:18:36;;;;;;;16.73;4.45;;;7.10;99.90;;;7.11;84.09;100025.75;5016454;28;20065;-83
2023/12/09 04:21:03;;;;;;;19.38;4.85;;;7.10;99.90;;;7.14;84.13;100035.97;5017824;28;20106;-83
2023/12/09 04:23:32;;;;;;;20.58;5.53;;;7.10;99.90;;;7.16;83.70;100025.16;5035971;28;20048;-83
2023/12/09 04:25:59;;;;;;;17.00;4.97;;;7.10;99.90;;;7.14;83.71;100033.31;5036222;28;20037;-83
2023/12/09 04:28:27;;;;;;;14.48;4.88;;;7.40;99.90;;;7.14;83.45;100035.97;5016801;28;20050;-83
2023/12/09 04:30:55;;;;;;;14.02;4.70;;;7.10;99.90;;;7.17;83.81;100032.06;4983209;28;20119;-83
2023/12/09 04:33:22;;;;;;;14.02;4.57;;;7.10;99.90;;;7.18;83.60;100023.94;4987133;28;20049;-83
2023/12/09 04:35:49;;;;;;;15.73;4.30;;;7.10;99.90;;;7.20;83.78;100027.19;5019517;28;20042;-82
2023/12/09 04:38:17;;;;;;;17.42;5.00;;;7.10;99.90;;;7.20;83.31;100029.03;5019119;28;20535;-83
2023/12/09 04:40:46;;;;;;;15.65;4.40;;;7.10;99.90;;;7.19;83.46;100028.22;5036958;28;20484;-83
2023/12/09 04:43:14;;;;;;;16.27;4.30;;;7.10;99.90;;;7.22;83.48;100019.88;5017389;28;20050;-83
2023/12/09 04:45:41;;;;;;;14.23;4.38;;;7.10;99.90;;;7.25;83.41;100012.53;5016449;28;20113;-83
2023/12/09 04:48:08;;;;;;;16.20;5.57;;;7.10;99.90;;;7.23;83.51;100008.25;5017591;28;20512;-83
2023/12/09 04:50:36;;;;;;;14.15;4.13;;;7.10;99.90;;;7.18;83.79;100005.38;5017608;28;20046;-83
2023/12/09 04:53:03;;;;;;;14.23;4.32;;;7.20;99.90;;;7.18;83.58;100002.72;5032163;28;20057;-83
2023/12/09 04:55:31;;;;;;;15.20;4.28;;;7.20;99.90;;;7.19;83.69;100001.69;4998742;28;20042;-83
2023/12/09 04:58:00;;;;;;;13.45;4.32;;;7.20;99.90;;;7.26;83.82;99998.25;5032776;28;20501;-83
2023/12/09 05:00:27;;;;;;;17.05;4.07;;;7.20;99.90;;;7.25;83.68;99993.97;5039292;28;20579;-82
2023/12/09 05:02:55;;;;;;;18.63;4.38;;;7.20;99.90;;;7.23;83.50;99992.34;5038484;28;20057;-83
2023/12/09 05:05:22;;;;;;;21.65;4.97;;;7.10;99.90;;;7.21;83.31;99989.06;5022212;28;20041;-83
2023/12/09 05:07:50;;;;;;;17.80;4.88;;;7.20;99.90;;;7.23;83.65;99983.56;5007437;28;20050;-83
2023/12/09 05:10:18;;;;;;;16.23;4.32;;;7.10;99.90;;;7.29;83.63;99990.72;5038135;28;20045;-83
2023/12/09 05:12:46;;;;;;;15.80;3.83;;;7.20;99.90;;;7.30;83.13;99976.41;5040186;28;20061;-83
2023/12/09 05:15:14;;;;;;;17.77;4.53;;;7.20;99.90;;;7.31;83.35;99990.50;5038706;28;20069;-83
2023/12/09 05:17:42;;;;;;;20.83;5.03;;;7.20;99.90;;;7.31;83.19;99983.34;5026638;28;20042;-83
2023/12/09 05:20:11;;;;;;;13.45;3.60;;;7.20;99.90;;;7.32;83.13;99986.81;5019924;28;20117;-83
2023/12/09 05:22:38;;;;;;;12.93;3.67;;;7.20;99.90;;;7.32;82.78;99987.66;5036794;28;20466;-83
2023/12/09 05:25:08;;;;;;;8.35;3.10;;;7.10;99.90;;;7.32;82.59;99981.50;5037484;28;20095;-82
2023/12/09 05:27:36;;;;;;;13.75;3.63;;;7.20;99.90;;;7.31;82.43;99977.22;5028037;28;20041;-83
2023/12/09 05:30:04;;;;;;;16.75;3.88;;;7.10;99.90;;;7.19;82.29;99972.53;5018353;28;20041;-83
2023/12/09 05:32:33;;;;;;;12.52;3.75;;;7.10;99.90;;;7.13;83.13;99981.31;5018327;28;20053;-83
2023/12/09 05:35:01;;;;;;;15.40;3.60;;;7.10;99.90;;;7.19;83.23;99972.53;5020356;28;20410;-83
2023/12/09 05:37:28;;;;;;;15.07;4.15;;;7.10;99.90;;;7.21;83.06;99967.00;5019338;28;20576;-84
2023/12/09 05:39:56;;;;;;;11.82;3.45;;;7.10;99.90;;;7.23;82.83;99959.69;5039361;28;20118;-83
2023/12/09 05:42:23;;;;;;;14.18;3.53;;;7.10;99.90;;;7.22;82.81;99961.53;5020685;28;20042;-83
2023/12/09 05:44:51;;;;;;;14.57;4.00;;;7.10;99.90;;;7.23;82.80;99957.84;5018922;28;20046;-83
2023/12/09 05:47:18;;;;;;;11.50;3.58;;;7.10;99.90;;;7.24;82.65;99956.03;5017527;28;20088;-83
2023/12/09 05:49:47;;;;;;;15.57;3.85;;;7.10;99.90;;;7.25;82.43;99956.84;4998616;28;20042;-83
2023/12/09 05:52:15;;;;;;;11.68;3.42;;;7.10;99.90;;;7.22;82.23;99955.38;5014328;28;20096;-83
2023/12/09 05:54:42;;;;;;;8.98;3.35;;;7.10;99.90;;;7.21;81.85;99943.97;4982562;28;20042;-83
2023/12/09 05:57:09;;;;;;;14.13;3.50;;;7.00;99.90;;;7.24;82.07;99953.38;5014561;28;20568;-83
2023/12/09 05:59:37;;;;;;;16.95;3.50;;;7.10;99.90;;;7.26;82.02;99956.63;5035544;28;20151;-83
2023/12/09 06:02:05;;;;;;;17.13;3.63;;;7.00;99.90;;;7.28;82.08;99948.47;5005099;28;20041;-83
2023/12/09 06:04:32;;;;;;;18.73;3.42;;;7.00;99.90;;;7.29;81.84;99947.47;5038506;28;20073;-83
2023/12/09 06:07:02;;;;;;;16.05;3.63;;;7.00;99.90;;;7.21;81.50;99941.31;5021782;28;20045;-83
2023/12/09 06:09:29;;;;;;;10.25;3.28;;;7.00;99.90;;;7.22;81.68;99937.66;5020513;28;20077;-83
2023/12/09 06:11:57;;;;;;;11.60;3.50;;;7.00;99.90;;;7.22;81.44;99944.78;5034137;28;20096;-83
2023/12/09 06:14:24;;;;;;;9.98;3.30;;;7.00;99.90;;;7.18;81.39;99940.91;5020081;28;20046;-83
2023/12/09 06:16:52;;;;;;;12.77;3.75;;;7.00;99.90;;;7.16;81.78;99930.50;5018235;28;20049;-86
2023/12/09 06:19:19;;;;;;;10.40;3.30;;;6.90;99.90;;;7.18;81.67;99931.13;5020968;28;20052;-83
2023/12/09 06:21:47;;;;;;;13.05;2.83;;;6.90;99.90;;;7.14;81.77;99921.94;5037661;28;20478;-84
2023/12/09 06:24:16;;;;;;;14.10;3.35;;;7.00;99.90;;;7.14;81.82;99927.25;5039741;28;20118;-82
2023/12/09 06:26:44;;;;;;;10.77;3.38;;;7.00;99.90;;;7.18;81.72;99928.47;5042905;28;20115;-82
2023/12/09 06:29:14;;;;;;;12.50;3.20;;;7.00;99.90;;;7.17;81.74;99924.19;5040129;28;20053;-82
2023/12/09 06:31:42;;;;;;;10.35;2.88;;;7.00;99.90;;;7.16;81.81;99927.03;5025267;28;20049;-83
2023/12/09 06:34:09;;;;;;;10.40;3.45;;;7.00;99.90;;;7.09;81.67;99929.69;5040402;28;20519;-81
2023/12/09 06:36:37;;;;;;;11.77;3.08;;;7.00;99.90;;;7.11;81.80;99929.47;5040724;28;20202;-84
2023/12/09 06:39:05;;;;;;;13.48;2.95;;;6.90;99.90;;;7.13;81.98;99919.50;5031326;28;20068;-83
2023/12/09 06:41:34;;;;;;;6.55;2.67;;;7.00;99.90;;;7.11;81.93;99924.97;5022529;28;20046;-83
2023/12/09 06:44:01;;;;;;;12.02;3.20;;;7.00;99.90;;;7.10;81.67;99914.59;5019731;28;20053;-83
2023/12/09 06:46:29;;;;;;;10.65;2.80;;;7.00;99.90;;;7.10;81.78;99910.09;5034940;28;20046;-82
2023/12/09 06:48:58;;;;;;;10.38;2.85;;;7.00;99.90;;;7.08;82.00;99906.84;5032037;28;20049;-82
2023/12/09 06:51:26;;;;;;;10.23;3.33;;;7.00;99.90;;;7.07;82.29;99899.88;5038385;28;20058;-85
2023/12/09 06:53:53;;;;;;;10.68;3.28;;;7.00;99.90;;;7.04;82.22;99904.78;5036700;28;20136;-85
2023/12/09 06:56:21;;;;;;;11.13;2.92;;;7.00;99.90;;;7.09;82.65;99903.16;5018694;28;20041;-83
2023/12/09 06:58:51;;;;;;;8.45;2.83;;;7.00;99.90;;;7.12;82.55;99896.63;5016379;28;20077;-84
2023/12/09 07:01:25;;;;;;;10.85;2.95;;;7.00;99.90;;;7.16;82.59;99898.69;5034680;28;20471;-85
2023/12/09 07:03:53;;;;;;;8.23;2.65;;;7.00;99.90;;;7.10;82.36;99886.22;5034861;28;20049;-85
2023/12/09 07:06:23;;;;;;;8.23;2.53;;;7.00;99.90;;;7.09;82.46;99886.44;5032751;28;20049;-85
2023/12/09 07:08:52;;;;;;;8.65;2.63;;;7.00;99.90;;;7.12;82.60;99883.38;5033911;28;20072;-84
2023/12/09 07:11:21;;;;;;;8.38;2.70;;;7.00;99.90;;;7.15;82.60;99881.13;5035774;28;20045;-84
2023/12/09 07:13:51;;;;;;;6.63;2.42;;;7.10;99.90;;;7.19;82.52;99879.72;5032474;28;20056;-84
2023/12/09 07:16:20;;;;;;;9.68;2.50;;;7.10;99.90;;;7.18;82.50;99869.31;5013575;28;20037;-84
2023/12/09 07:18:50;;;;;;;8.18;2.35;;;7.10;99.90;;;7.15;82.42;99873.19;4997568;28;20046;-84
2023/12/09 07:21:18;;;;;;;6.30;2.23;;;7.10;99.90;;;7.14;82.37;99865.44;5013991;28;20053;-84
2023/12/09 07:23:46;;;;;;;9.25;2.80;;;7.10;99.90;;;7.14;82.55;99863.59;5013591;28;20432;-84
2023/12/09 07:26:16;;;;;;;7.65;2.33;;;7.10;99.90;;;7.18;82.59;99864.84;5014908;28;20461;-84
2023/12/09 07:28:44;;;;;;;13.63;3.47;;;7.10;99.90;;;7.15;82.50;99865.22;5013239;28;20100;-84
2023/12/09 07:31:14;;;;;;;13.00;2.90;;;7.10;99.90;;;7.21;82.59;99858.28;5013399;28;20050;-84
2023/12/09 07:33:42;;;;;;;12.48;4.45;;;7.20;99.90;;;7.21;82.24;99852.97;5030525;28;20129;-84
2023/12/09 07:36:10;;;;;;;13.05;4.68;;;7.20;99.90;;;7.20;82.19;99849.53;4996537;28;20402;-84
2023/12/09 07:38:38;;;;;;;15.43;4.80;;;7.20;99.90;;;7.23;82.46;99840.34;5029954;28;20140;-84
2023/12/09 07:41:06;;;;;;;8.52;2.83;;;7.20;99.90;;;7.18;81.89;99826.91;5014849;28;20049;-84
2023/12/09 07:43:36;;;;;;;9.70;2.85;;;7.20;99.90;;;7.22;82.22;99844.00;5029981;28;20050;-84
2023/12/09 07:46:05;;;;;;;9.18;2.88;;;7.20;99.90;;;7.26;82.30;99828.50;5029904;28;20140;-84
2023/12/09 07:48:34;;;;;;;7.82;3.05;;;7.20;99.90;;;7.29;82.33;99814.84;5015933;28;20049;-83
2023/12/09 07:51:06;;;;;;;8.25;2.47;;;7.30;99.90;;;7.29;82.31;99813.00;5015042;28;20054;-83
2023/12/09 07:53:33;;;;;;;;;;;7.30;99.90;;;7.27;82.02;99806.25;5016056;28;20060;-84
2023/12/09 07:56:01;;;;;;;10.75;3.03;;;7.30;99.90;;;7.27;82.28;99803.59;5015875;28;20392;-84
2023/12/09 07:58:28;;;;;;;7.95;2.42;;;7.30;99.90;;;7.33;82.07;99810.75;5031486;28;20049;-84
2023/12/09 08:00:58;;;;;;;11.70;2.90;;;7.30;99.90;;;7.35;81.98;99790.13;5016747;28;20053;-81
2023/12/09 08:03:26;;;;;;;38.75;17.77;;;7.30;99.90;;;7.32;81.44;99806.47;5031990;28;20046;-82
2023/12/09 08:05:55;;;;;;;11.68;4.10;;;7.30;99.90;;;7.26;81.27;99794.03;5016633;28;20046;-84
2023/12/09 08:08:22;;;;;;;12.70;3.92;;;7.30;99.90;;;7.33;81.58;99789.53;5017041;28;20037;-83
2023/12/09 08:10:50;;;;;;;6.75;2.95;;;7.30;99.90;;;7.36;81.96;99789.91;5016655;28;20076;-84
2023/12/09 08:13:18;;;;;;;10.32;2.75;;;7.20;99.90;;;7.35;81.46;99783.00;5017547;28;20049;-84
2023/12/09 08:15:45;;;;;;;11.85;2.47;;;7.30;99.90;;;7.34;82.02;99784.03;4983773;28;20509;-83
2023/12/09 08:18:13;;;;;;;9.30;2.53;;;7.30;99.90;;;7.38;82.11;99776.47;5018129;28;20065;-84
2023/12/09 08:20:40;;;;;;;14.15;5.43;;;7.40;99.90;;;7.37;81.50;99777.47;5017564;28;20084;-83
2023/12/09 08:23:09;;;;;;;15.45;5.28;;;7.40;99.90;;;7.42;81.52;99775.03;5015993;28;20054;-84
2023/12/09 08:25:36;;;;;;;13.07;4.50;;;7.30;99.90;;;7.42;81.49;99769.75;5015897;28;20049;-83
2023/12/09 08:28:05;;;;;;;14.65;4.05;;;7.40;99.90;;;7.40;81.22;99750.53;5014578;28;20073;-84
2023/12/09 08:30:33;;;;;;;14.48;4.95;;;7.40;99.90;;;7.36;81.17;99750.13;5017248;28;20177;-84
2023/12/09 08:33:01;;;;;;;10.30;3.17;;;7.40;99.90;;;7.35;81.10;99743.22;5017728;28;20116;-82
2023/12/09 08:35:29;;;;;;;8.70;2.97;;;7.40;99.90;;;7.35;81.09;99745.03;5038432;28;20100;-82
2023/12/09 08:37:56;;;;;;;10.35;3.00;;;7.40;99.90;;;7.37;81.43;99751.78;5021740;28;20046;-82
2023/12/09 08:40:28;;;;;;;10.77;2.92;;;7.40;99.90;;;7.41;81.30;99749.50;5021093;28;20044;-82
2023/12/09 08:42:56;;;;;;;8.30;2.63;;;7.40;99.90;;;7.41;81.37;99747.66;5022403;28;20049;-82
2023/12/09 08:45:24;;;;;;;16.27;3.72;;;7.50;99.90;;;7.41;81.00;99746.84;5021249;28;20049;-81
2023/12/09 08:47:51;;;;;;;12.63;3.75;;;7.50;99.90;;;7.43;81.21;99744.84;5019395;28;20148;-81
2023/12/09 08:50:18;;;;;;;23.55;8.93;;;7.50;99.90;;;7.47;81.48;99738.09;5035406;28;20073;-82
2023/12/09 08:52:47;;;;;;;17.50;7.10;;;7.50;99.90;;;7.49;81.64;99744.00;5019284;28;20049;-81
2023/12/09 08:55:15;;;;;;;20.48;9.45;;;7.50;99.90;;;7.52;81.52;99748.88;5018640;28;20046;-81
2023/12/09 08:57:45;;;;;;;28.75;9.00;;;7.50;99.90;;;7.53;81.69;99753.16;5020080;28;20113;-84
2023/12/09 09:00:18;;;;;;;15.57;7.45;;;7.70;99.90;;;7.54;81.36;99752.13;5022459;28;20034;-84
2023/12/09 09:02:46;;;;;;;14.05;4.95;;;7.50;99.90;;;7.58;81.25;99747.22;5021660;28;20096;-84
2023/12/09 09:05:14;;;;;;;10.57;3.70;;;7.60;99.90;;;7.57;81.16;99745.63;5022371;28;20042;-83
2023/12/09 09:07:45;;;;;;;11.65;3.10;;;7.60;99.90;;;7.53;80.69;99744.41;5023542;28;20535;-84
2023/12/09 09:10:12;;;;;;;14.45;3.05;;;7.60;99.90;;;7.54;80.96;99738.06;5005660;28;20041;-84
2023/12/09 09:12:40;;;;;;;10.98;2.83;;;7.60;99.90;;;7.57;81.04;99745.63;5021232;28;20042;-83
2023/12/09 09:15:10;;;;;;;8.95;3.17;;;7.60;99.90;;;7.50;80.88;99740.31;5024336;28;20046;-83
2023/12/09 09:17:37;;;;;;;10.07;2.78;;;7.60;99.90;;;7.57;80.64;99745.63;5022972;28;20057;-83
2023/12/09 09:20:06;;;;;;;12.50;3.00;;;7.60;99.90;;;7.59;80.97;99736.41;5022386;28;20481;-83
2023/12/09 09:22:35;;;;;;;12.80;2.90;;;7.60;99.90;;;7.62;81.23;99724.56;5023121;28;20062;-84
2023/12/09 09:25:03;;;;;;;13.13;2.97;;;7.70;99.90;;;7.62;81.00;99728.03;5040353;28;20050;-83
2023/12/09 09:27:32;;;;;;;8.63;2.80;;;7.60;99.90;;;7.64;81.05;99715.34;5037419;28;20042;-83
2023/12/09 09:30:00;;;;;;;10.75;3.22;;;7.70;99.90;;;7.64;80.96;99699.44;5038257;28;20484;-83
2023/12/09 09:32:29;;;;;;;12.95;3.25;;;7.70;99.90;;;7.64;80.69;99704.75;5020784;28;20445;-83
2023/12/09 09:34:57;;;;;;;11.45;2.67;;;7.70;99.90;;;7.70;80.89;99695.13;5020164;28;20042;-83
2023/12/09 09:37:28;;;;;;;16.20;2.80;;;7.80;99.90;;;7.73;80.88;99676.94;5017845;28;20096;-83
2023/12/09 09:39:56;;;;;;;12.73;3.22;;;7.80;99.90;;;7.74;80.41;99669.78;5017909;28;20077;-83
2023/12/09 09:42:31;;;;;;;13.05;2.85;;;7.90;99.90;;;7.75;80.27;99674.06;5016901;28;20049;-83
2023/12/09 09:45:13;;;;;;;15.82;3.72;;;7.90;99.90;;;7.78;80.15;99668.34;5016516;28;20523;-83
2023/12/09 09:47:43;;;;;;;12.73;2.95;;;7.90;99.90;;;7.79;80.14;99658.53;5018170;28;20072;-83
2023/12/09 09:50:17;;;;;;;10.32;4.38;;;8.10;99.90;;;7.83;80.28;99657.91;5019925;28;20038;-84
2023/12/09 09:52:46;;;;;;;13.85;4.40;;;8.00;99.90;;;7.91;80.49;99641.72;5022639;28;20041;-83
2023/12/09 09:55:15;;;;;;;16.80;3.30;;;8.10;99.90;;;7.95;80.11;99631.47;5021318;28;20126;-84
2023/12/09 09:57:43;;;;;;;11.60;2.95;;;8.10;99.90;;;7.96;79.55;99628.63;5022571;28;20054;-84
2023/12/09 10:00:14;;;;;;;11.18;3.22;;;8.10;99.90;;;7.96;79.38;99623.31;5037340;28;20081;-83
2023/12/09 10:02:45;;;;;;;14.80;3.40;;;8.20;99.90;;;8.01;79.82;99612.03;5004646;28;20118;-84
2023/12/09 10:05:15;;;;;;;11.40;2.92;;;8.20;99.90;;;8.02;79.68;99592.44;5038173;28;20046;-83
2023/12/09 10:07:44;;;;;;;14.15;3.25;;;8.20;99.90;;;8.04;79.39;99593.00;5021589;28;20416;-83
2023/12/09 10:10:13;;;;;;;17.77;2.85;;;8.20;99.90;;;8.02;79.28;99587.13;5036339;28;20401;-84
2023/12/09 10:12:42;;;;;;;8.80;2.63;;;8.30;99.90;;;8.02;79.65;99573.84;5017993;28;20060;-84
2023/12/09 10:15:12;;;;;;;15.68;2.85;;;8.20;99.90;;;8.05;79.63;99565.41;5021809;28;20045;-83
2023/12/09 10:17:39;;;;;;;15.13;3.08;;;8.20;99.90;;;8.02;78.59;99560.56;5020398;28;20041;-83
2023/12/09 10:20:11;;;;;;;13.48;2.70;;;8.40;99.90;;;8.04;78.51;99563.00;5020279;28;20042;-84
2023/12/09 10:22:39;;;;;;;13.77;3.00;;;8.20;99.90;;;8.05;78.84;99559.28;4988858;28;20054;-84
2023/12/09 10:25:08;;;;;;;15.05;2.92;;;8.20;99.90;;;8.08;78.94;99556.22;5024733;28;20046;-83
2023/12/09 10:27:35;;;;;;;12.40;2.78;;;8.20;99.90;;;8.07;78.75;99560.72;5023279;28;20050;-84